createdAt,value
2017-10-11T00:00:38.549Z,1011.83
2017-10-11T00:01:19.084Z,1011.82
2017-10-11T00:01:59.620Z,1011.78
2017-10-11T00:02:40.155Z,1011.8
2017-10-11T00:03:20.689Z,1011.78
2017-10-11T00:04:01.220Z,1011.78
2017-10-11T00:04:41.761Z,1011.78
2017-10-11T00:05:22.293Z,1011.79
2017-10-11T00:06:02.828Z,1011.79
2017-10-11T00:06:43.363Z,1011.79
2017-10-11T00:07:23.900Z,1011.79
2017-10-11T00:08:04.447Z,1011.8
2017-10-11T00:08:44.973Z,1011.86
2017-10-11T00:09:25.508Z,1011.85
2017-10-11T00:10:06.041Z,1011.86
2017-10-11T00:10:46.585Z,1011.89
2017-10-11T00:11:27.121Z,1011.88
2017-10-11T00:12:07.654Z,1011.86
2017-10-11T00:12:48.188Z,1011.86
2017-10-11T00:13:28.722Z,1011.85
2017-10-11T00:14:09.259Z,1011.87
2017-10-11T00:14:49.796Z,1011.89
2017-10-11T00:15:30.337Z,1011.9
2017-10-11T00:16:10.876Z,1011.9
2017-10-11T00:16:51.397Z,1011.92
2017-10-11T00:17:31.932Z,1011.92
2017-10-11T00:18:12.460Z,1011.96
2017-10-11T00:18:53.003Z,1011.94
2017-10-11T00:19:33.541Z,1011.95
2017-10-11T00:20:14.077Z,1011.94
2017-10-11T00:20:54.615Z,1011.9
2017-10-11T00:21:35.144Z,1011.92
2017-10-11T00:22:15.678Z,1011.94
2017-10-11T00:22:56.211Z,1011.95
2017-10-11T00:23:36.744Z,1011.91
2017-10-11T00:24:17.269Z,1011.91
2017-10-11T00:24:57.808Z,1011.91
2017-10-11T00:25:38.338Z,1011.91
2017-10-11T00:26:18.877Z,1011.9
2017-10-11T00:26:59.410Z,1011.93
2017-10-11T00:27:39.947Z,1011.95
2017-10-11T00:28:20.482Z,1011.91
2017-10-11T00:29:01.018Z,1011.95
2017-10-11T00:29:41.555Z,1011.97
2017-10-11T00:30:22.080Z,1011.96
2017-10-11T00:31:02.619Z,1011.97
2017-10-11T00:31:43.158Z,1011.96
2017-10-11T00:32:23.691Z,1011.96
2017-10-11T00:33:04.228Z,1011.96
2017-10-11T00:33:44.763Z,1011.96
2017-10-11T00:34:25.296Z,1011.96
2017-10-11T00:35:05.841Z,1011.95
2017-10-11T00:35:46.375Z,1011.96
2017-10-11T00:36:26.915Z,1011.92
2017-10-11T00:37:07.454Z,1011.98
2017-10-11T00:37:47.986Z,1011.96
2017-10-11T00:38:28.533Z,1011.95
2017-10-11T00:39:09.078Z,1011.92
2017-10-11T00:39:49.602Z,1011.93
2017-10-11T00:40:30.139Z,1011.92
2017-10-11T00:41:10.677Z,1011.92
2017-10-11T00:41:51.219Z,1011.91
2017-10-11T00:42:31.758Z,1011.87
2017-10-11T00:43:12.294Z,1011.91
2017-10-11T00:43:52.829Z,1011.92
2017-10-11T00:44:33.368Z,1011.9
2017-10-11T00:45:13.897Z,1011.91
2017-10-11T00:45:54.439Z,1011.9
2017-10-11T00:46:34.964Z,1011.94
2017-10-11T00:47:15.497Z,1011.91
2017-10-11T00:47:56.036Z,1011.92
2017-10-11T00:48:36.568Z,1011.95
2017-10-11T00:49:17.101Z,1011.9
2017-10-11T00:49:57.642Z,1011.91
2017-10-11T00:50:38.178Z,1011.89
2017-10-11T00:51:18.716Z,1011.88
2017-10-11T00:51:59.251Z,1011.87
2017-10-11T00:52:39.791Z,1011.87
2017-10-11T00:53:20.314Z,1011.89
2017-10-11T00:54:00.853Z,1011.86
2017-10-11T00:54:41.390Z,1011.86
2017-10-11T00:55:21.933Z,1011.83
2017-10-11T00:56:02.470Z,1011.87
2017-10-11T00:56:43.001Z,1011.84
2017-10-11T00:57:23.547Z,1011.8
2017-10-11T00:58:04.082Z,1011.8
2017-10-11T00:58:44.617Z,1011.79
2017-10-11T00:59:25.149Z,1011.8
2017-10-11T01:00:05.683Z,1011.79
2017-10-11T01:00:46.218Z,1011.76
2017-10-11T01:01:26.756Z,1011.74
2017-10-11T01:02:07.287Z,1011.74
2017-10-11T01:02:47.820Z,1011.76
2017-10-11T01:03:28.358Z,1011.76
2017-10-11T01:04:08.896Z,1011.74
2017-10-11T01:04:49.426Z,1011.69
2017-10-11T01:05:29.961Z,1011.74
2017-10-11T01:06:10.499Z,1011.72
2017-10-11T01:06:51.032Z,1011.75
2017-10-11T01:07:31.557Z,1011.73
2017-10-11T01:08:12.102Z,1011.74
2017-10-11T01:08:52.639Z,1011.76
2017-10-11T01:09:33.186Z,1011.75
2017-10-11T01:10:13.722Z,1011.73
2017-10-11T01:10:54.259Z,1011.75
2017-10-11T01:11:34.791Z,1011.75
2017-10-11T01:12:15.325Z,1011.8
2017-10-11T01:12:55.858Z,1011.76
2017-10-11T01:13:36.395Z,1011.73
2017-10-11T01:14:16.935Z,1011.78
2017-10-11T01:14:57.463Z,1011.77
2017-10-11T01:15:37.998Z,1011.72
2017-10-11T01:16:18.533Z,1011.72
2017-10-11T01:16:59.057Z,1011.74
2017-10-11T01:17:39.608Z,1011.75
2017-10-11T01:18:20.139Z,1011.8
2017-10-11T01:19:00.672Z,1011.76
2017-10-11T01:19:41.208Z,1011.77
2017-10-11T01:20:21.739Z,1011.74
2017-10-11T01:21:02.274Z,1011.73
2017-10-11T01:21:42.804Z,1011.73
2017-10-11T01:22:23.337Z,1011.75
2017-10-11T01:23:03.878Z,1011.73
2017-10-11T01:23:44.419Z,1011.73
2017-10-11T01:24:24.956Z,1011.69
2017-10-11T01:25:05.487Z,1011.66
2017-10-11T01:25:46.026Z,1011.7
2017-10-11T01:26:26.560Z,1011.7
2017-10-11T01:27:07.092Z,1011.73
2017-10-11T01:27:47.631Z,1011.69
2017-10-11T01:28:28.154Z,1011.65
2017-10-11T01:29:08.689Z,1011.68
2017-10-11T01:29:49.226Z,1011.65
2017-10-11T01:30:29.759Z,1011.65
2017-10-11T01:31:10.296Z,1011.65
2017-10-11T01:31:50.835Z,1011.65
2017-10-11T01:32:31.366Z,1011.65
2017-10-11T01:33:11.896Z,1011.65
2017-10-11T01:33:52.431Z,1011.65
2017-10-11T01:34:32.969Z,1011.65
2017-10-11T01:35:13.510Z,1011.64
2017-10-11T01:35:54.041Z,1011.64
2017-10-11T01:36:34.588Z,1011.68
2017-10-11T01:37:15.141Z,1011.65
2017-10-11T01:37:55.683Z,1011.64
2017-10-11T01:38:36.218Z,1011.64
2017-10-11T01:39:16.751Z,1011.63
2017-10-11T01:39:57.290Z,1011.64
2017-10-11T01:40:37.827Z,1011.61
2017-10-11T01:41:18.360Z,1011.61
2017-10-11T01:41:58.896Z,1011.59
2017-10-11T01:42:39.434Z,1011.63
2017-10-11T01:43:19.972Z,1011.58
2017-10-11T01:44:00.502Z,1011.6
2017-10-11T01:44:41.043Z,1011.63
2017-10-11T01:45:21.572Z,1011.65
2017-10-11T01:46:02.111Z,1011.62
2017-10-11T01:46:42.647Z,1011.65
2017-10-11T01:47:23.181Z,1011.66
2017-10-11T01:48:03.705Z,1011.67
2017-10-11T01:48:44.251Z,1011.64
2017-10-11T01:49:24.780Z,1011.65
2017-10-11T01:50:05.311Z,1011.64
2017-10-11T01:50:45.848Z,1011.67
2017-10-11T01:51:26.391Z,1011.65
2017-10-11T01:52:06.927Z,1011.7
2017-10-11T01:52:47.459Z,1011.62
2017-10-11T01:53:28.003Z,1011.68
2017-10-11T01:54:08.548Z,1011.66
2017-10-11T01:54:49.065Z,1011.69
2017-10-11T01:55:29.603Z,1011.69
2017-10-11T01:56:10.146Z,1011.68
2017-10-11T01:56:50.673Z,1011.66
2017-10-11T01:57:31.237Z,1011.66
2017-10-11T01:58:11.765Z,1011.65
2017-10-11T01:58:52.296Z,1011.66
2017-10-11T01:59:32.829Z,1011.65
2017-10-11T02:00:13.365Z,1011.67
2017-10-11T02:00:53.900Z,1011.66
2017-10-11T02:01:34.436Z,1011.67
2017-10-11T02:02:14.963Z,1011.61
2017-10-11T02:02:55.493Z,1011.62
2017-10-11T02:03:36.033Z,1011.62
2017-10-11T02:04:16.566Z,1011.57
2017-10-11T02:04:57.101Z,1011.57
2017-10-11T02:05:37.641Z,1011.57
2017-10-11T02:06:18.177Z,1011.58
2017-10-11T02:06:58.711Z,1011.6
2017-10-11T02:07:39.252Z,1011.62
2017-10-11T02:08:19.778Z,1011.62
2017-10-11T02:09:00.318Z,1011.64
2017-10-11T02:09:40.857Z,1011.64
2017-10-11T02:10:21.398Z,1011.66
2017-10-11T02:11:01.925Z,1011.63
2017-10-11T02:11:42.467Z,1011.63
2017-10-11T02:12:23.002Z,1011.61
2017-10-11T02:13:03.531Z,1011.63
2017-10-11T02:13:44.069Z,1011.59
2017-10-11T02:14:24.603Z,1011.63
2017-10-11T02:15:05.142Z,1011.65
2017-10-11T02:15:45.674Z,1011.64
2017-10-11T02:16:26.219Z,1011.6
2017-10-11T02:17:06.744Z,1011.61
2017-10-11T02:17:47.276Z,1011.63
2017-10-11T02:18:27.812Z,1011.64
2017-10-11T02:19:08.350Z,1011.65
2017-10-11T02:19:48.886Z,1011.68
2017-10-11T02:20:29.431Z,1011.65
2017-10-11T02:21:09.952Z,1011.69
2017-10-11T02:21:50.488Z,1011.62
2017-10-11T02:22:31.024Z,1011.6
2017-10-11T02:23:11.558Z,1011.6
2017-10-11T02:23:52.094Z,1011.59
2017-10-11T02:24:32.627Z,1011.64
2017-10-11T02:25:13.161Z,1011.62
2017-10-11T02:25:53.694Z,1011.66
2017-10-11T02:26:34.230Z,1011.65
2017-10-11T02:27:14.769Z,1011.65
2017-10-11T02:27:55.295Z,1011.66
2017-10-11T02:28:35.836Z,1011.65
2017-10-11T02:29:16.371Z,1011.64
2017-10-11T02:29:56.905Z,1011.62
2017-10-11T02:30:37.436Z,1011.61
2017-10-11T02:31:17.974Z,1011.57
2017-10-11T02:31:58.505Z,1011.58
2017-10-11T02:32:39.038Z,1011.57
2017-10-11T02:33:19.573Z,1011.56
2017-10-11T02:34:00.107Z,1011.57
2017-10-11T02:34:40.650Z,1011.55
2017-10-11T02:35:21.190Z,1011.57
2017-10-11T02:36:01.730Z,1011.52
2017-10-11T02:36:42.268Z,1011.55
2017-10-11T02:37:22.798Z,1011.53
2017-10-11T02:38:03.332Z,1011.48
2017-10-11T02:38:43.866Z,1011.5
2017-10-11T02:39:24.401Z,1011.5
2017-10-11T02:40:04.939Z,1011.49
2017-10-11T02:40:45.481Z,1011.49
2017-10-11T02:41:26.019Z,1011.45
2017-10-11T02:42:06.559Z,1011.45
2017-10-11T02:42:47.093Z,1011.43
2017-10-11T02:43:27.627Z,1011.45
2017-10-11T02:44:08.165Z,1011.45
2017-10-11T02:44:48.707Z,1011.46
2017-10-11T02:45:29.244Z,1011.44
2017-10-11T02:46:09.778Z,1011.42
2017-10-11T02:46:50.315Z,1011.42
2017-10-11T02:47:30.846Z,1011.45
2017-10-11T02:48:11.381Z,1011.4
2017-10-11T02:48:51.922Z,1011.44
2017-10-11T02:49:32.460Z,1011.46
2017-10-11T02:50:12.991Z,1011.39
2017-10-11T02:50:53.529Z,1011.4
2017-10-11T02:51:34.060Z,1011.38
2017-10-11T02:52:14.596Z,1011.39
2017-10-11T02:52:55.149Z,1011.43
2017-10-11T02:53:35.685Z,1011.43
2017-10-11T02:54:16.215Z,1011.41
2017-10-11T02:54:56.751Z,1011.41
2017-10-11T02:55:37.269Z,1011.4
2017-10-11T02:56:17.802Z,1011.42
2017-10-11T02:56:58.341Z,1011.46
2017-10-11T02:57:38.879Z,1011.41
2017-10-11T02:58:19.421Z,1011.44
2017-10-11T02:58:59.956Z,1011.39
2017-10-11T02:59:40.499Z,1011.41
2017-10-11T03:00:21.029Z,1011.39
2017-10-11T03:01:01.590Z,1011.41
2017-10-11T03:01:42.128Z,1011.43
2017-10-11T03:02:22.646Z,1011.41
2017-10-11T03:03:03.186Z,1011.41
2017-10-11T03:03:43.721Z,1011.39
2017-10-11T03:04:24.260Z,1011.43
2017-10-11T03:05:04.794Z,1011.44
2017-10-11T03:05:45.319Z,1011.41
2017-10-11T03:06:25.848Z,1011.41
2017-10-11T03:07:06.386Z,1011.39
2017-10-11T03:07:46.925Z,1011.44
2017-10-11T03:08:27.460Z,1011.4
2017-10-11T03:09:07.998Z,1011.43
2017-10-11T03:09:48.540Z,1011.41
2017-10-11T03:10:29.069Z,1011.47
2017-10-11T03:11:09.613Z,1011.45
2017-10-11T03:11:50.142Z,1011.44
2017-10-11T03:12:30.683Z,1011.44
2017-10-11T03:13:11.237Z,1011.46
2017-10-11T03:13:51.769Z,1011.44
2017-10-11T03:14:32.310Z,1011.47
2017-10-11T03:15:12.846Z,1011.46
2017-10-11T03:15:53.375Z,1011.46
2017-10-11T03:16:33.920Z,1011.45
2017-10-11T03:17:14.457Z,1011.45
2017-10-11T03:17:54.991Z,1011.43
2017-10-11T03:18:35.528Z,1011.47
2017-10-11T03:19:16.063Z,1011.45
2017-10-11T03:19:56.599Z,1011.43
2017-10-11T03:20:37.124Z,1011.47
2017-10-11T03:21:17.654Z,1011.45
2017-10-11T03:21:58.187Z,1011.4
2017-10-11T03:22:38.724Z,1011.45
2017-10-11T03:23:19.256Z,1011.42
2017-10-11T03:23:59.781Z,1011.4
2017-10-11T03:24:40.321Z,1011.4
2017-10-11T03:25:20.862Z,1011.45
2017-10-11T03:26:01.390Z,1011.44
2017-10-11T03:26:41.930Z,1011.41
2017-10-11T03:27:22.469Z,1011.4
2017-10-11T03:28:03.005Z,1011.42
2017-10-11T03:28:43.531Z,1011.38
2017-10-11T03:29:24.064Z,1011.4
2017-10-11T03:30:04.602Z,1011.4
2017-10-11T03:30:45.140Z,1011.35
2017-10-11T03:31:25.674Z,1011.38
2017-10-11T03:32:06.234Z,1011.37
2017-10-11T03:32:46.774Z,1011.43
2017-10-11T03:33:27.395Z,1011.4
2017-10-11T03:34:07.933Z,1011.39
2017-10-11T03:34:48.476Z,1011.4
2017-10-11T03:35:29.003Z,1011.36
2017-10-11T03:36:09.537Z,1011.37
2017-10-11T03:36:50.071Z,1011.39
2017-10-11T03:37:30.594Z,1011.37
2017-10-11T03:38:11.123Z,1011.37
2017-10-11T03:38:51.659Z,1011.37
2017-10-11T03:39:32.191Z,1011.39
2017-10-11T03:40:12.731Z,1011.38
2017-10-11T03:40:53.268Z,1011.34
2017-10-11T03:41:33.798Z,1011.36
2017-10-11T03:42:14.348Z,1011.35
2017-10-11T03:42:54.869Z,1011.36
2017-10-11T03:43:35.406Z,1011.31
2017-10-11T03:44:15.954Z,1011.33
2017-10-11T03:44:56.509Z,1011.33
2017-10-11T03:45:37.036Z,1011.36
2017-10-11T03:46:17.574Z,1011.33
2017-10-11T03:46:58.109Z,1011.34
2017-10-11T03:47:38.636Z,1011.34
2017-10-11T03:48:19.181Z,1011.37
2017-10-11T03:48:59.710Z,1011.35
2017-10-11T03:49:40.246Z,1011.35
2017-10-11T03:50:21.089Z,1011.38
2017-10-11T03:51:02.048Z,1011.37
2017-10-11T03:51:42.583Z,1011.32
2017-10-11T03:52:23.115Z,1011.34
2017-10-11T03:53:03.652Z,1011.35
2017-10-11T03:53:44.218Z,1011.4
2017-10-11T03:54:24.816Z,1011.37
2017-10-11T03:55:05.354Z,1011.37
2017-10-11T03:55:45.887Z,1011.37
2017-10-11T03:56:27.657Z,1011.36
2017-10-11T03:57:08.987Z,1011.36
2017-10-11T03:57:49.558Z,1011.36
2017-10-11T03:58:30.091Z,1011.37
2017-10-11T03:59:10.623Z,1011.34
2017-10-11T03:59:51.167Z,1011.34
2017-10-11T04:00:31.708Z,1011.32
2017-10-11T04:01:12.234Z,1011.32
2017-10-11T04:01:52.772Z,1011.28
2017-10-11T04:02:33.302Z,1011.32
2017-10-11T04:03:13.901Z,1011.32
2017-10-11T04:03:54.435Z,1011.29
2017-10-11T04:04:34.964Z,1011.32
2017-10-11T04:05:15.501Z,1011.28
2017-10-11T04:05:56.033Z,1011.3
2017-10-11T04:06:36.572Z,1011.28
2017-10-11T04:07:17.096Z,1011.29
2017-10-11T04:07:57.721Z,1011.3
2017-10-11T04:08:38.259Z,1011.29
2017-10-11T04:09:18.799Z,1011.28
2017-10-11T04:09:59.336Z,1011.27
2017-10-11T04:10:39.862Z,1011.29
2017-10-11T04:11:20.380Z,1011.27
2017-10-11T04:12:00.920Z,1011.26
2017-10-11T04:12:41.446Z,1011.24
2017-10-11T04:13:21.986Z,1011.25
2017-10-11T04:14:02.522Z,1011.26
2017-10-11T04:14:43.058Z,1011.26
2017-10-11T04:15:23.588Z,1011.22
2017-10-11T04:16:04.126Z,1011.26
2017-10-11T04:16:44.660Z,1011.25
2017-10-11T04:17:25.196Z,1011.29
2017-10-11T04:18:05.727Z,1011.22
2017-10-11T04:18:46.251Z,1011.22
2017-10-11T04:19:26.778Z,1011.23
2017-10-11T04:20:07.319Z,1011.22
2017-10-11T04:20:47.855Z,1011.24
2017-10-11T04:21:28.414Z,1011.26
2017-10-11T04:22:08.959Z,1011.23
2017-10-11T04:22:49.489Z,1011.25
2017-10-11T04:23:30.014Z,1011.28
2017-10-11T04:24:10.539Z,1011.25
2017-10-11T04:24:51.081Z,1011.32
2017-10-11T04:25:31.611Z,1011.29
2017-10-11T04:26:12.168Z,1011.29
2017-10-11T04:26:52.702Z,1011.3
2017-10-11T04:27:33.248Z,1011.32
2017-10-11T04:28:13.803Z,1011.3
2017-10-11T04:28:54.327Z,1011.29
2017-10-11T04:29:34.870Z,1011.31
2017-10-11T04:30:15.402Z,1011.29
2017-10-11T04:30:55.938Z,1011.31
2017-10-11T04:31:36.476Z,1011.3
2017-10-11T04:32:17.009Z,1011.28
2017-10-11T04:32:57.544Z,1011.27
2017-10-11T04:33:38.082Z,1011.28
2017-10-11T04:34:18.613Z,1011.26
2017-10-11T04:34:59.147Z,1011.27
2017-10-11T04:35:39.703Z,1011.29
2017-10-11T04:36:20.256Z,1011.31
2017-10-11T04:37:00.792Z,1011.32
2017-10-11T04:37:41.401Z,1011.3
2017-10-11T04:38:21.939Z,1011.31
2017-10-11T04:39:02.469Z,1011.31
2017-10-11T04:39:43.000Z,1011.35
2017-10-11T04:40:23.539Z,1011.38
2017-10-11T04:41:04.076Z,1011.38
2017-10-11T04:41:44.612Z,1011.33
2017-10-11T04:42:25.146Z,1011.28
2017-10-11T04:43:05.670Z,1011.3
2017-10-11T04:43:46.201Z,1011.31
2017-10-11T04:44:26.753Z,1011.34
2017-10-11T04:45:07.288Z,1011.32
2017-10-11T04:45:47.910Z,1011.35
2017-10-11T04:46:28.436Z,1011.36
2017-10-11T04:47:08.962Z,1011.36
2017-10-11T04:47:49.512Z,1011.31
2017-10-11T04:48:30.033Z,1011.34
2017-10-11T04:49:10.570Z,1011.27
2017-10-11T04:49:51.105Z,1011.31
2017-10-11T04:50:31.637Z,1011.32
2017-10-11T04:51:12.170Z,1011.34
2017-10-11T04:51:52.869Z,1011.32
2017-10-11T04:52:33.406Z,1011.31
2017-10-11T04:53:13.941Z,1011.3
2017-10-11T04:53:54.464Z,1011.27
2017-10-11T04:54:35.013Z,1011.28
2017-10-11T04:55:15.546Z,1011.27
2017-10-11T04:55:56.102Z,1011.28
2017-10-11T04:56:36.638Z,1011.24
2017-10-11T04:57:17.172Z,1011.31
2017-10-11T04:57:57.712Z,1011.3
2017-10-11T04:58:38.242Z,1011.3
2017-10-11T04:59:18.812Z,1011.29
2017-10-11T04:59:59.310Z,1011.32
2017-10-11T05:00:39.846Z,1011.27
2017-10-11T05:01:20.382Z,1011.31
2017-10-11T05:02:00.922Z,1011.29
2017-10-11T05:02:41.464Z,1011.24
2017-10-11T05:03:21.994Z,1011.3
2017-10-11T05:04:02.530Z,1011.27
2017-10-11T05:04:43.057Z,1011.34
2017-10-11T05:05:23.626Z,1011.35
2017-10-11T05:06:04.163Z,1011.33
2017-10-11T05:06:44.695Z,1011.32
2017-10-11T05:07:25.223Z,1011.3
2017-10-11T05:08:05.768Z,1011.35
2017-10-11T05:08:46.302Z,1011.33
2017-10-11T05:09:26.834Z,1011.32
2017-10-11T05:10:07.368Z,1011.35
2017-10-11T05:10:47.913Z,1011.34
2017-10-11T05:11:28.442Z,1011.35
2017-10-11T05:12:08.979Z,1011.3
2017-10-11T05:12:49.514Z,1011.35
2017-10-11T05:13:30.041Z,1011.34
2017-10-11T05:14:10.571Z,1011.38
2017-10-11T05:14:51.099Z,1011.38
2017-10-11T05:15:31.638Z,1011.36
2017-10-11T05:16:12.162Z,1011.34
2017-10-11T05:16:52.833Z,1011.36
2017-10-11T05:17:33.428Z,1011.32
2017-10-11T05:18:13.964Z,1011.36
2017-10-11T05:18:54.499Z,1011.34
2017-10-11T05:19:35.036Z,1011.31
2017-10-11T05:20:15.571Z,1011.33
2017-10-11T05:20:56.092Z,1011.36
2017-10-11T05:21:36.629Z,1011.33
2017-10-11T05:22:17.167Z,1011.34
2017-10-11T05:22:57.704Z,1011.34
2017-10-11T05:23:38.239Z,1011.37
2017-10-11T05:24:18.789Z,1011.38
2017-10-11T05:24:59.331Z,1011.39
2017-10-11T05:25:39.862Z,1011.38
2017-10-11T05:26:20.402Z,1011.36
2017-10-11T05:27:00.948Z,1011.37
2017-10-11T05:27:41.472Z,1011.38
2017-10-11T05:28:22.007Z,1011.37
2017-10-11T05:29:02.543Z,1011.37
2017-10-11T05:29:43.081Z,1011.35
2017-10-11T05:30:23.613Z,1011.35
2017-10-11T05:31:04.152Z,1011.37
2017-10-11T05:31:44.685Z,1011.35
2017-10-11T05:32:25.219Z,1011.37
2017-10-11T05:33:05.755Z,1011.39
2017-10-11T05:33:46.293Z,1011.4
2017-10-11T05:34:26.821Z,1011.37
2017-10-11T05:35:07.359Z,1011.39
2017-10-11T05:35:47.873Z,1011.35
2017-10-11T05:36:28.408Z,1011.36
2017-10-11T05:37:08.946Z,1011.35
2017-10-11T05:37:49.479Z,1011.36
2017-10-11T05:38:30.010Z,1011.35
2017-10-11T05:39:10.558Z,1011.35
2017-10-11T05:39:51.112Z,1011.37
2017-10-11T05:40:31.633Z,1011.36
2017-10-11T05:41:12.171Z,1011.32
2017-10-11T05:41:52.714Z,1011.33
2017-10-11T05:42:33.250Z,1011.33
2017-10-11T05:43:13.773Z,1011.28
2017-10-11T05:43:54.315Z,1011.3
2017-10-11T05:44:34.842Z,1011.29
2017-10-11T05:45:15.365Z,1011.3
2017-10-11T05:45:55.901Z,1011.28
2017-10-11T05:46:36.445Z,1011.29
2017-10-11T05:47:16.965Z,1011.29
2017-10-11T05:47:57.501Z,1011.31
2017-10-11T05:48:38.037Z,1011.27
2017-10-11T05:49:18.575Z,1011.28
2017-10-11T05:49:59.105Z,1011.31
2017-10-11T05:50:39.647Z,1011.31
2017-10-11T05:51:20.184Z,1011.33
2017-10-11T05:52:00.721Z,1011.31
2017-10-11T05:52:41.261Z,1011.33
2017-10-11T05:53:21.876Z,1011.32
2017-10-11T05:54:02.394Z,1011.33
2017-10-11T05:54:42.916Z,1011.3
2017-10-11T05:55:23.457Z,1011.35
2017-10-11T05:56:03.986Z,1011.37
2017-10-11T05:56:44.527Z,1011.33
2017-10-11T05:57:25.059Z,1011.36
2017-10-11T05:58:05.591Z,1011.39
2017-10-11T05:58:46.126Z,1011.37
2017-10-11T05:59:26.660Z,1011.39
2017-10-11T06:00:07.200Z,1011.38
2017-10-11T06:00:47.738Z,1011.39
2017-10-11T06:01:28.273Z,1011.39
2017-10-11T06:02:08.810Z,1011.4
2017-10-11T06:02:49.337Z,1011.41
2017-10-11T06:03:29.864Z,1011.41
2017-10-11T06:04:10.388Z,1011.39
2017-10-11T06:04:50.923Z,1011.42
2017-10-11T06:05:31.471Z,1011.39
2017-10-11T06:06:11.996Z,1011.45
2017-10-11T06:06:52.534Z,1011.43
2017-10-11T06:07:33.066Z,1011.44
2017-10-11T06:08:13.613Z,1011.41
2017-10-11T06:08:54.146Z,1011.39
2017-10-11T06:09:34.687Z,1011.41
2017-10-11T06:10:15.232Z,1011.46
2017-10-11T06:10:55.760Z,1011.46
2017-10-11T06:11:36.339Z,1011.46
2017-10-11T06:12:16.876Z,1011.46
2017-10-11T06:12:57.418Z,1011.48
2017-10-11T06:13:37.932Z,1011.49
2017-10-11T06:14:18.464Z,1011.47
2017-10-11T06:14:58.996Z,1011.46
2017-10-11T06:15:39.531Z,1011.47
2017-10-11T06:16:20.058Z,1011.48
2017-10-11T06:17:00.599Z,1011.49
2017-10-11T06:17:41.137Z,1011.51
2017-10-11T06:18:21.678Z,1011.55
2017-10-11T06:19:02.217Z,1011.53
2017-10-11T06:19:42.754Z,1011.53
2017-10-11T06:20:23.276Z,1011.54
2017-10-11T06:21:03.810Z,1011.54
2017-10-11T06:21:44.377Z,1011.6
2017-10-11T06:22:24.907Z,1011.6
2017-10-11T06:23:05.443Z,1011.59
2017-10-11T06:23:45.982Z,1011.6
2017-10-11T06:24:26.508Z,1011.59
2017-10-11T06:25:07.074Z,1011.6
2017-10-11T06:25:47.611Z,1011.58
2017-10-11T06:26:28.141Z,1011.59
2017-10-11T06:27:08.668Z,1011.62
2017-10-11T06:27:49.194Z,1011.57
2017-10-11T06:28:29.748Z,1011.57
2017-10-11T06:29:10.296Z,1011.58
2017-10-11T06:29:50.823Z,1011.59
2017-10-11T06:30:31.361Z,1011.6
2017-10-11T06:31:11.891Z,1011.6
2017-10-11T06:31:52.416Z,1011.59
2017-10-11T06:32:32.950Z,1011.64
2017-10-11T06:33:13.490Z,1011.62
2017-10-11T06:33:54.015Z,1011.61
2017-10-11T06:34:34.563Z,1011.6
2017-10-11T06:35:15.098Z,1011.62
2017-10-11T06:35:55.621Z,1011.53
2017-10-11T06:36:36.151Z,1011.53
2017-10-11T06:37:16.693Z,1011.57
2017-10-11T06:37:57.212Z,1011.55
2017-10-11T06:38:37.763Z,1011.58
2017-10-11T06:39:18.288Z,1011.56
2017-10-11T06:39:58.812Z,1011.54
2017-10-11T06:40:39.357Z,1011.53
2017-10-11T06:41:19.887Z,1011.55
2017-10-11T06:42:00.404Z,1011.59
2017-10-11T06:42:40.938Z,1011.57
2017-10-11T06:43:21.471Z,1011.57
2017-10-11T06:44:02.008Z,1011.58
2017-10-11T06:44:42.537Z,1011.57
2017-10-11T06:45:23.074Z,1011.56
2017-10-11T06:46:03.601Z,1011.53
2017-10-11T06:46:44.133Z,1011.55
2017-10-11T06:47:24.673Z,1011.5
2017-10-11T06:48:05.212Z,1011.54
2017-10-11T06:48:45.747Z,1011.52
2017-10-11T06:49:26.280Z,1011.55
2017-10-11T06:50:06.819Z,1011.58
2017-10-11T06:50:47.355Z,1011.56
2017-10-11T06:51:27.884Z,1011.57
2017-10-11T06:52:08.419Z,1011.54
2017-10-11T06:52:48.955Z,1011.57
2017-10-11T06:53:29.493Z,1011.56
2017-10-11T06:54:10.028Z,1011.56
2017-10-11T06:54:50.566Z,1011.54
2017-10-11T06:55:31.108Z,1011.6
2017-10-11T06:56:11.652Z,1011.62
2017-10-11T06:56:52.183Z,1011.6
2017-10-11T06:57:32.712Z,1011.57
2017-10-11T06:58:13.246Z,1011.6
2017-10-11T06:58:53.782Z,1011.6
2017-10-11T06:59:34.332Z,1011.62
2017-10-11T07:00:14.867Z,1011.58
2017-10-11T07:00:55.403Z,1011.63
2017-10-11T07:01:35.944Z,1011.61
2017-10-11T07:02:16.471Z,1011.62
2017-10-11T07:02:57.005Z,1011.62
2017-10-11T07:03:37.540Z,1011.61
2017-10-11T07:04:18.080Z,1011.59
2017-10-11T07:04:58.595Z,1011.57
2017-10-11T07:05:39.185Z,1011.57
2017-10-11T07:06:19.724Z,1011.6
2017-10-11T07:07:00.259Z,1011.61
2017-10-11T07:07:40.793Z,1011.64
2017-10-11T07:08:21.332Z,1011.68
2017-10-11T07:09:01.863Z,1011.64
2017-10-11T07:09:42.398Z,1011.66
2017-10-11T07:10:22.936Z,1011.7
2017-10-11T07:11:03.478Z,1011.68
2017-10-11T07:11:44.005Z,1011.73
2017-10-11T07:12:24.552Z,1011.74
2017-10-11T07:13:05.085Z,1011.7
2017-10-11T07:13:45.639Z,1011.75
2017-10-11T07:14:26.159Z,1011.74
2017-10-11T07:15:06.695Z,1011.75
2017-10-11T07:15:47.241Z,1011.74
2017-10-11T07:16:27.778Z,1011.71
2017-10-11T07:17:08.320Z,1011.76
2017-10-11T07:17:48.852Z,1011.77
2017-10-11T07:18:29.386Z,1011.78
2017-10-11T07:19:09.925Z,1011.77
2017-10-11T07:19:50.461Z,1011.78
2017-10-11T07:20:30.997Z,1011.79
2017-10-11T07:21:11.536Z,1011.78
2017-10-11T07:21:52.069Z,1011.76
2017-10-11T07:22:32.606Z,1011.76
2017-10-11T07:23:13.139Z,1011.77
2017-10-11T07:23:53.670Z,1011.77
2017-10-11T07:24:34.203Z,1011.79
2017-10-11T07:25:14.751Z,1011.8
2017-10-11T07:25:55.292Z,1011.81
2017-10-11T07:26:35.826Z,1011.78
2017-10-11T07:27:16.359Z,1011.82
2017-10-11T07:27:56.891Z,1011.79
2017-10-11T07:28:37.433Z,1011.78
2017-10-11T07:29:17.950Z,1011.8
2017-10-11T07:29:58.478Z,1011.79
2017-10-11T07:30:39.010Z,1011.78
2017-10-11T07:31:19.545Z,1011.79
2017-10-11T07:32:00.079Z,1011.79
2017-10-11T07:32:40.615Z,1011.78
2017-10-11T07:33:21.157Z,1011.84
2017-10-11T07:34:01.700Z,1011.81
2017-10-11T07:34:42.232Z,1011.81
2017-10-11T07:35:22.763Z,1011.8
2017-10-11T07:36:03.300Z,1011.83
2017-10-11T07:36:43.829Z,1011.84
2017-10-11T07:37:24.366Z,1011.81
2017-10-11T07:38:04.952Z,1011.82
2017-10-11T07:38:45.481Z,1011.85
2017-10-11T07:39:26.010Z,1011.83
2017-10-11T07:40:06.552Z,1011.82
2017-10-11T07:40:47.087Z,1011.84
2017-10-11T07:41:27.622Z,1011.85
2017-10-11T07:42:08.155Z,1011.84
2017-10-11T07:42:48.691Z,1011.84
2017-10-11T07:43:29.228Z,1011.84
2017-10-11T07:44:09.765Z,1011.84
2017-10-11T07:44:50.299Z,1011.84
2017-10-11T07:45:30.830Z,1011.83
2017-10-11T07:46:11.359Z,1011.84
2017-10-11T07:46:51.897Z,1011.84
2017-10-11T07:47:32.440Z,1011.86
2017-10-11T07:48:12.977Z,1011.88
2017-10-11T07:48:53.515Z,1011.89
2017-10-11T07:49:34.055Z,1011.89
2017-10-11T07:50:14.586Z,1011.91
2017-10-11T07:50:55.124Z,1011.89
2017-10-11T07:51:35.658Z,1011.9
2017-10-11T07:52:16.193Z,1011.89
2017-10-11T07:52:56.732Z,1011.88
2017-10-11T07:53:37.272Z,1011.91
2017-10-11T07:54:17.810Z,1011.95
2017-10-11T07:54:58.337Z,1011.92
2017-10-11T07:55:38.873Z,1011.92
2017-10-11T07:56:19.406Z,1011.91
2017-10-11T07:56:59.945Z,1011.96
2017-10-11T07:57:40.487Z,1011.97
2017-10-11T07:58:21.025Z,1011.95
2017-10-11T07:59:01.566Z,1011.99
2017-10-11T07:59:42.155Z,1011.99
2017-10-11T08:00:22.688Z,1011.94
2017-10-11T08:01:03.228Z,1011.94
2017-10-11T08:01:43.772Z,1011.95
2017-10-11T08:02:24.305Z,1011.94
2017-10-11T08:03:04.840Z,1011.94
2017-10-11T08:03:45.376Z,1011.97
2017-10-11T08:04:25.915Z,1011.97
2017-10-11T08:05:06.460Z,1011.97
2017-10-11T08:05:46.990Z,1011.95
2017-10-11T08:06:27.525Z,1011.97
2017-10-11T08:07:08.058Z,1011.99
2017-10-11T08:07:48.593Z,1011.97
2017-10-11T08:08:29.135Z,1011.98
2017-10-11T08:09:09.664Z,1011.95
2017-10-11T08:09:50.196Z,1011.95
2017-10-11T08:10:30.737Z,1011.92
2017-10-11T08:11:11.273Z,1011.94
2017-10-11T08:11:51.804Z,1011.97
2017-10-11T08:12:32.344Z,1011.94